sensor_id;sensor_type;location;lat;lon;timestamp;pressure;altitude;pressure_sealevel;temperature;humidity
22572;BME280;11452;53.368;14.658;2022-08-19T00:02:42;100483.85;;;23.06;80.44
22572;BME280;11452;53.368;14.658;2022-08-19T00:07:50;100496.30;;;23.05;80.65
22572;BME280;11452;53.368;14.658;2022-08-19T00:12:55;100497.52;;;22.98;80.37
22572;BME280;11452;53.368;14.658;2022-08-19T00:18:01;100483.52;;;23.01;81.28
22572;BME280;11452;53.368;14.658;2022-08-19T00:23:07;100480.31;;;22.98;81.08
22572;BME280;11452;53.368;14.658;2022-08-19T00:28:13;100491.04;;;22.95;82.05
22572;BME280;11452;53.368;14.658;2022-08-19T00:33:19;100486.10;;;22.95;82.06
22572;BME280;11452;53.368;14.658;2022-08-19T00:38:25;100470.08;;;23.00;82.35
22572;BME280;11452;53.368;14.658;2022-08-19T00:43:33;100468.00;;;23.02;82.19
22572;BME280;11452;53.368;14.658;2022-08-19T00:48:39;100453.02;;;23.02;82.57
22572;BME280;11452;53.368;14.658;2022-08-19T00:53:44;100457.27;;;23.04;82.67
22572;BME280;11452;53.368;14.658;2022-08-19T00:58:50;100466.30;;;23.09;83.04
22572;BME280;11452;53.368;14.658;2022-08-19T01:03:56;100456.24;;;23.09;82.80
22572;BME280;11452;53.368;14.658;2022-08-19T01:09:02;100450.45;;;23.08;82.93
22572;BME280;11452;53.368;14.658;2022-08-19T01:14:10;100453.17;;;23.08;83.01
22572;BME280;11452;53.368;14.658;2022-08-19T01:19:36;100440.73;;;23.06;83.10
22572;BME280;11452;53.368;14.658;2022-08-19T01:24:44;100440.91;;;23.04;83.04
22572;BME280;11452;53.368;14.658;2022-08-19T01:29:52;100447.22;;;23.05;83.05
22572;BME280;11452;53.368;14.658;2022-08-19T01:34:59;100442.44;;;23.07;83.41
22572;BME280;11452;53.368;14.658;2022-08-19T01:40:07;100448.91;;;23.14;83.64
22572;BME280;11452;53.368;14.658;2022-08-19T01:45:13;100451.13;;;23.14;83.74
22572;BME280;11452;53.368;14.658;2022-08-19T01:50:19;100441.75;;;23.13;83.45
22572;BME280;11452;53.368;14.658;2022-08-19T01:55:27;100427.95;;;23.10;83.33
22572;BME280;11452;53.368;14.658;2022-08-19T02:00:33;100418.75;;;23.11;84.04
22572;BME280;11452;53.368;14.658;2022-08-19T02:05:40;100416.69;;;23.18;83.78
22572;BME280;11452;53.368;14.658;2022-08-19T02:10:45;100409.36;;;23.18;83.71
22572;BME280;11452;53.368;14.658;2022-08-19T02:15:51;100407.67;;;23.09;83.59
22572;BME280;11452;53.368;14.658;2022-08-19T02:20:57;100426.41;;;23.12;83.83
22572;BME280;11452;53.368;14.658;2022-08-19T02:26:03;100424.54;;;23.12;83.50
22572;BME280;11452;53.368;14.658;2022-08-19T02:31:11;100433.75;;;23.11;83.59
22572;BME280;11452;53.368;14.658;2022-08-19T02:36:17;100423.86;;;23.10;83.26
22572;BME280;11452;53.368;14.658;2022-08-19T02:41:27;100420.29;;;23.06;83.21
22572;BME280;11452;53.368;14.658;2022-08-19T02:46:33;100421.83;;;23.04;83.28
22572;BME280;11452;53.368;14.658;2022-08-19T02:51:42;100411.64;;;22.94;83.32
22572;BME280;11452;53.368;14.658;2022-08-19T02:56:48;100418.11;;;22.97;83.38
22572;BME280;11452;53.368;14.658;2022-08-19T03:01:53;100400.44;;;22.81;82.59
22572;BME280;11452;53.368;14.658;2022-08-19T03:06:59;100399.08;;;22.77;83.02
22572;BME280;11452;53.368;14.658;2022-08-19T03:12:06;100407.73;;;22.64;82.20
22572;BME280;11452;53.368;14.658;2022-08-19T03:17:12;100417.46;;;22.59;82.22
22572;BME280;11452;53.368;14.658;2022-08-19T03:22:17;100409.45;;;22.53;82.52
22572;BME280;11452;53.368;14.658;2022-08-19T03:27:24;100416.09;;;22.51;82.56
22572;BME280;11452;53.368;14.658;2022-08-19T03:32:31;100405.02;;;22.52;82.33
22572;BME280;11452;53.368;14.658;2022-08-19T03:37:38;100404.86;;;22.54;83.01
22572;BME280;11452;53.368;14.658;2022-08-19T03:42:44;100401.97;;;22.59;82.83
22572;BME280;11452;53.368;14.658;2022-08-19T03:47:52;100397.70;;;22.57;82.88
22572;BME280;11452;53.368;14.658;2022-08-19T03:52:58;100393.63;;;22.57;82.97
22572;BME280;11452;53.368;14.658;2022-08-19T03:58:05;100397.36;;;22.52;82.95
22572;BME280;11452;53.368;14.658;2022-08-19T04:03:10;100396.17;;;22.50;82.96
22572;BME280;11452;53.368;14.658;2022-08-19T04:08:16;100413.37;;;22.51;83.39
22572;BME280;11452;53.368;14.658;2022-08-19T04:13:23;100426.14;;;22.54;83.57
22572;BME280;11452;53.368;14.658;2022-08-19T04:18:29;100413.53;;;22.49;83.13
22572;BME280;11452;53.368;14.658;2022-08-19T04:23:37;100417.81;;;22.43;83.57
22572;BME280;11452;53.368;14.658;2022-08-19T04:28:45;100454.58;;;22.39;83.28
22572;BME280;11452;53.368;14.658;2022-08-19T04:33:50;100457.80;;;22.31;83.78
22572;BME280;11452;53.368;14.658;2022-08-19T04:38:58;100469.20;;;22.22;84.09
22572;BME280;11452;53.368;14.658;2022-08-19T04:44:05;100456.27;;;22.20;84.97
22572;BME280;11452;53.368;14.658;2022-08-19T04:49:11;100460.02;;;22.35;85.00
22572;BME280;11452;53.368;14.658;2022-08-19T04:54:19;100476.70;;;22.36;85.65
22572;BME280;11452;53.368;14.658;2022-08-19T04:59:28;100474.34;;;22.41;85.86
22572;BME280;11452;53.368;14.658;2022-08-19T05:04:34;100492.03;;;22.50;85.69
22572;BME280;11452;53.368;14.658;2022-08-19T05:09:41;100484.37;;;22.53;85.51
22572;BME280;11452;53.368;14.658;2022-08-19T05:14:48;100479.77;;;22.50;85.74
22572;BME280;11452;53.368;14.658;2022-08-19T05:19:54;100479.28;;;22.58;86.28
22572;BME280;11452;53.368;14.658;2022-08-19T05:25:19;100472.27;;;22.48;85.03
22572;BME280;11452;53.368;14.658;2022-08-19T05:30:25;100471.95;;;22.42;86.86
22572;BME280;11452;53.368;14.658;2022-08-19T05:35:32;100487.45;;;22.58;86.51
22572;BME280;11452;53.368;14.658;2022-08-19T05:40:39;100483.86;;;22.70;86.83
22572;BME280;11452;53.368;14.658;2022-08-19T05:45:45;100485.61;;;22.79;86.12
22572;BME280;11452;53.368;14.658;2022-08-19T05:50:51;100482.38;;;22.79;86.04
22572;BME280;11452;53.368;14.658;2022-08-19T05:55:56;100475.02;;;22.84;86.00
22572;BME280;11452;53.368;14.658;2022-08-19T06:01:03;100475.03;;;23.00;86.56
22572;BME280;11452;53.368;14.658;2022-08-19T06:06:12;100474.98;;;23.12;86.34
22572;BME280;11452;53.368;14.658;2022-08-19T06:11:24;100473.92;;;23.22;85.95
22572;BME280;11452;53.368;14.658;2022-08-19T06:16:30;100484.32;;;23.30;85.85
22572;BME280;11452;53.368;14.658;2022-08-19T06:21:39;100475.95;;;23.36;85.31
22572;BME280;11452;53.368;14.658;2022-08-19T06:26:48;100468.13;;;23.29;84.57
22572;BME280;11452;53.368;14.658;2022-08-19T06:31:58;100482.44;;;23.31;85.21
22572;BME280;11452;53.368;14.658;2022-08-19T06:37:04;100487.05;;;23.26;84.51
22572;BME280;11452;53.368;14.658;2022-08-19T06:42:11;100492.66;;;23.37;85.22
22572;BME280;11452;53.368;14.658;2022-08-19T06:47:21;100479.48;;;23.44;84.77
22572;BME280;11452;53.368;14.658;2022-08-19T06:52:31;100470.98;;;23.39;84.82
22572;BME280;11452;53.368;14.658;2022-08-19T06:57:39;100453.12;;;23.33;84.43
22572;BME280;11452;53.368;14.658;2022-08-19T07:02:46;100444.76;;;23.34;84.86
22572;BME280;11452;53.368;14.658;2022-08-19T07:07:53;100442.88;;;23.35;84.83
22572;BME280;11452;53.368;14.658;2022-08-19T07:13:03;100448.13;;;23.53;86.14
22572;BME280;11452;53.368;14.658;2022-08-19T07:18:10;100439.20;;;23.63;85.22
22572;BME280;11452;53.368;14.658;2022-08-19T07:23:15;100450.42;;;23.72;85.49
22572;BME280;11452;53.368;14.658;2022-08-19T07:28:21;100431.70;;;23.61;83.77
22572;BME280;11452;53.368;14.658;2022-08-19T07:33:29;100444.66;;;23.63;84.89
22572;BME280;11452;53.368;14.658;2022-08-19T07:38:37;100443.04;;;23.76;84.47
22572;BME280;11452;53.368;14.658;2022-08-19T07:43:43;100441.67;;;23.76;84.12
22572;BME280;11452;53.368;14.658;2022-08-19T07:48:51;100446.43;;;23.82;84.08
22572;BME280;11452;53.368;14.658;2022-08-19T07:53:57;100469.61;;;23.91;83.70
22572;BME280;11452;53.368;14.658;2022-08-19T07:59:03;100469.03;;;23.99;83.58
22572;BME280;11452;53.368;14.658;2022-08-19T08:04:09;100462.02;;;24.01;83.04
22572;BME280;11452;53.368;14.658;2022-08-19T08:09:36;100452.29;;;24.02;83.01
22572;BME280;11452;53.368;14.658;2022-08-19T08:14:52;100446.48;;;24.01;82.47
22572;BME280;11452;53.368;14.658;2022-08-19T08:19:56;100450.07;;;24.02;82.32
22572;BME280;11452;53.368;14.658;2022-08-19T08:25:11;100450.58;;;24.01;82.25
22572;BME280;11452;53.368;14.658;2022-08-19T08:30:19;100440.16;;;24.05;82.37
22572;BME280;11452;53.368;14.658;2022-08-19T08:35:26;100444.67;;;24.16;82.65
22572;BME280;11452;53.368;14.658;2022-08-19T08:45:50;100447.38;;;24.21;81.53
22572;BME280;11452;53.368;14.658;2022-08-19T08:50:57;100447.38;;;24.21;81.81
22572;BME280;11452;53.368;14.658;2022-08-19T08:56:06;100460.54;;;24.25;81.86
22572;BME280;11452;53.368;14.658;2022-08-19T09:01:13;100491.42;;;24.30;82.07
22572;BME280;11452;53.368;14.658;2022-08-19T09:06:40;100483.73;;;24.29;81.87
22572;BME280;11452;53.368;14.658;2022-08-19T09:12:01;100469.87;;;24.31;82.14
22572;BME280;11452;53.368;14.658;2022-08-19T09:17:05;100451.05;;;24.36;82.81
22572;BME280;11452;53.368;14.658;2022-08-19T09:22:12;100440.92;;;24.44;82.66
22572;BME280;11452;53.368;14.658;2022-08-19T09:27:20;100441.35;;;24.52;82.76
22572;BME280;11452;53.368;14.658;2022-08-19T09:32:31;100431.88;;;24.63;83.27
22572;BME280;11452;53.368;14.658;2022-08-19T09:37:37;100420.97;;;24.77;83.02
22572;BME280;11452;53.368;14.658;2022-08-19T09:42:44;100418.09;;;24.90;82.79
22572;BME280;11452;53.368;14.658;2022-08-19T09:47:53;100424.52;;;25.01;82.66
22572;BME280;11452;53.368;14.658;2022-08-19T09:52:59;100422.86;;;25.10;82.76
22572;BME280;11452;53.368;14.658;2022-08-19T09:58:05;100422.94;;;25.21;81.97
22572;BME280;11452;53.368;14.658;2022-08-19T10:03:11;100426.03;;;25.33;82.16
22572;BME280;11452;53.368;14.658;2022-08-19T10:08:20;100449.75;;;25.51;81.88
22572;BME280;11452;53.368;14.658;2022-08-19T10:13:28;100495.55;;;25.57;81.33
22572;BME280;11452;53.368;14.658;2022-08-19T10:18:35;100496.84;;;25.61;79.38
22572;BME280;11452;53.368;14.658;2022-08-19T10:23:46;100452.05;;;25.43;78.86
22572;BME280;11452;53.368;14.658;2022-08-19T10:28:54;100434.34;;;25.39;79.50
22572;BME280;11452;53.368;14.658;2022-08-19T10:34:01;100412.20;;;25.30;79.39
22572;BME280;11452;53.368;14.658;2022-08-19T10:39:09;100387.41;;;25.17;79.36
22572;BME280;11452;53.368;14.658;2022-08-19T10:44:17;100403.89;;;25.24;79.94
22572;BME280;11452;53.368;14.658;2022-08-19T10:49:23;100394.64;;;25.25;80.32
22572;BME280;11452;53.368;14.658;2022-08-19T10:54:33;100383.61;;;25.33;80.81
22572;BME280;11452;53.368;14.658;2022-08-19T10:59:57;100391.92;;;25.39;80.56
22572;BME280;11452;53.368;14.658;2022-08-19T11:05:03;100379.98;;;25.36;80.85
22572;BME280;11452;53.368;14.658;2022-08-19T11:10:14;100383.85;;;25.42;81.17
22572;BME280;11452;53.368;14.658;2022-08-19T11:15:23;100369.47;;;25.54;81.60
22572;BME280;11452;53.368;14.658;2022-08-19T11:20:29;100374.16;;;25.61;81.03
22572;BME280;11452;53.368;14.658;2022-08-19T11:25:38;100361.89;;;25.71;81.45
22572;BME280;11452;53.368;14.658;2022-08-19T11:30:44;100364.20;;;25.89;81.77
22572;BME280;11452;53.368;14.658;2022-08-19T11:35:50;100372.80;;;26.29;82.34
22572;BME280;11452;53.368;14.658;2022-08-19T11:40:58;100383.45;;;26.38;80.74
22572;BME280;11452;53.368;14.658;2022-08-19T11:46:05;100370.98;;;26.46;80.60
22572;BME280;11452;53.368;14.658;2022-08-19T11:51:14;100371.73;;;26.62;79.86
22572;BME280;11452;53.368;14.658;2022-08-19T11:56:21;100368.80;;;26.80;79.29
22572;BME280;11452;53.368;14.658;2022-08-19T12:01:28;100372.83;;;26.95;78.25
22572;BME280;11452;53.368;14.658;2022-08-19T12:06:34;100380.41;;;27.10;77.69
22572;BME280;11452;53.368;14.658;2022-08-19T12:11:43;100378.23;;;27.16;76.96
22572;BME280;11452;53.368;14.658;2022-08-19T12:16:49;100382.84;;;27.27;76.36
22572;BME280;11452;53.368;14.658;2022-08-19T12:22:00;100387.01;;;27.40;76.02
22572;BME280;11452;53.368;14.658;2022-08-19T12:27:07;100390.09;;;27.47;75.37
22572;BME280;11452;53.368;14.658;2022-08-19T12:32:15;100390.64;;;27.30;74.04
22572;BME280;11452;53.368;14.658;2022-08-19T12:37:21;100394.30;;;27.19;73.59
22572;BME280;11452;53.368;14.658;2022-08-19T12:42:27;100399.21;;;27.13;74.46
22572;BME280;11452;53.368;14.658;2022-08-19T12:47:34;100397.97;;;27.16;73.79
22572;BME280;11452;53.368;14.658;2022-08-19T12:52:42;100402.58;;;27.26;74.22
22572;BME280;11452;53.368;14.658;2022-08-19T12:57:47;100403.75;;;27.28;73.35
22572;BME280;11452;53.368;14.658;2022-08-19T13:02:56;100401.67;;;27.36;74.25
22572;BME280;11452;53.368;14.658;2022-08-19T13:08:02;100399.20;;;27.31;73.96
22572;BME280;11452;53.368;14.658;2022-08-19T13:13:09;100407.81;;;27.21;73.23
22572;BME280;11452;53.368;14.658;2022-08-19T13:18:15;100409.11;;;27.49;73.36
22572;BME280;11452;53.368;14.658;2022-08-19T13:23:21;100403.68;;;27.79;72.87
22572;BME280;11452;53.368;14.658;2022-08-19T13:28:27;100402.39;;;28.19;72.93
22572;BME280;11452;53.368;14.658;2022-08-19T13:33:35;100396.64;;;28.57;72.04
22572;BME280;11452;53.368;14.658;2022-08-19T13:38:40;100388.89;;;28.64;71.69
22572;BME280;11452;53.368;14.658;2022-08-19T13:43:46;100392.06;;;28.67;70.14
22572;BME280;11452;53.368;14.658;2022-08-19T13:48:52;100395.27;;;28.57;69.92
22572;BME280;11452;53.368;14.658;2022-08-19T13:53:58;100377.98;;;28.40;68.67
22572;BME280;11452;53.368;14.658;2022-08-19T13:59:03;100375.16;;;28.57;70.63
22572;BME280;11452;53.368;14.658;2022-08-19T14:04:09;100379.81;;;28.56;68.68
22572;BME280;11452;53.368;14.658;2022-08-19T14:09:15;100385.41;;;28.33;67.62
22572;BME280;11452;53.368;14.658;2022-08-19T14:14:20;100384.41;;;28.16;67.77
22572;BME280;11452;53.368;14.658;2022-08-19T14:19:27;100375.96;;;28.18;68.95
22572;BME280;11452;53.368;14.658;2022-08-19T14:24:33;100370.81;;;28.32;69.08
22572;BME280;11452;53.368;14.658;2022-08-19T14:29:39;100371.03;;;28.50;68.70
22572;BME280;11452;53.368;14.658;2022-08-19T14:34:45;100378.20;;;28.65;67.41
22572;BME280;11452;53.368;14.658;2022-08-19T14:39:51;100372.28;;;28.74;66.62
22572;BME280;11452;53.368;14.658;2022-08-19T14:44:58;100369.64;;;28.70;66.77
22572;BME280;11452;53.368;14.658;2022-08-19T14:50:09;100358.73;;;28.59;66.57
22572;BME280;11452;53.368;14.658;2022-08-19T14:55:17;100360.55;;;28.43;65.60
22572;BME280;11452;53.368;14.658;2022-08-19T15:00:23;100369.33;;;28.30;64.92
22572;BME280;11452;53.368;14.658;2022-08-19T15:05:29;100369.82;;;28.16;65.52
22572;BME280;11452;53.368;14.658;2022-08-19T15:10:38;100374.73;;;28.34;65.52
22572;BME280;11452;53.368;14.658;2022-08-19T15:15:44;100369.48;;;28.08;64.73
22572;BME280;11452;53.368;14.658;2022-08-19T15:20:51;100365.81;;;28.18;64.56
22572;BME280;11452;53.368;14.658;2022-08-19T15:25:57;100372.19;;;28.32;64.82
22572;BME280;11452;53.368;14.658;2022-08-19T15:31:04;100384.14;;;28.35;64.16
22572;BME280;11452;53.368;14.658;2022-08-19T15:36:10;100400.23;;;28.38;64.54
22572;BME280;11452;53.368;14.658;2022-08-19T15:41:21;100402.98;;;28.38;64.59
22572;BME280;11452;53.368;14.658;2022-08-19T15:46:31;100413.44;;;28.32;64.76
22572;BME280;11452;53.368;14.658;2022-08-19T15:51:37;100427.94;;;28.06;64.82
22572;BME280;11452;53.368;14.658;2022-08-19T15:56:43;100440.54;;;28.11;66.01
22572;BME280;11452;53.368;14.658;2022-08-19T16:02:07;100450.37;;;28.10;65.08
22572;BME280;11452;53.368;14.658;2022-08-19T16:07:32;100441.77;;;28.02;65.85
22572;BME280;11452;53.368;14.658;2022-08-19T16:12:38;100441.21;;;27.83;65.62
22572;BME280;11452;53.368;14.658;2022-08-19T16:17:44;100440.17;;;27.67;66.00
22572;BME280;11452;53.368;14.658;2022-08-19T16:22:52;100446.23;;;27.73;66.59
22572;BME280;11452;53.368;14.658;2022-08-19T16:27:59;100451.13;;;27.43;66.06
22572;BME280;11452;53.368;14.658;2022-08-19T16:33:07;100453.05;;;27.32;66.74
22572;BME280;11452;53.368;14.658;2022-08-19T16:38:12;100457.57;;;27.11;66.25
22572;BME280;11452;53.368;14.658;2022-08-19T16:43:25;100470.91;;;26.93;66.69
22572;BME280;11452;53.368;14.658;2022-08-19T16:48:28;100462.91;;;26.81;67.04
22572;BME280;11452;53.368;14.658;2022-08-19T16:53:35;100463.78;;;26.60;66.61
22572;BME280;11452;53.368;14.658;2022-08-19T16:58:42;100453.75;;;26.46;67.62
22572;BME280;11452;53.368;14.658;2022-08-19T17:03:47;100451.36;;;26.21;68.15
22572;BME280;11452;53.368;14.658;2022-08-19T17:08:59;100462.52;;;26.09;68.62
22572;BME280;11452;53.368;14.658;2022-08-19T17:14:05;100474.42;;;25.91;68.89
22572;BME280;11452;53.368;14.658;2022-08-19T17:19:11;100472.48;;;25.81;69.54
22572;BME280;11452;53.368;14.658;2022-08-19T17:24:18;100466.61;;;25.73;70.13
22572;BME280;11452;53.368;14.658;2022-08-19T17:29:23;100466.99;;;25.70;71.00
22572;BME280;11452;53.368;14.658;2022-08-19T17:34:29;100459.58;;;25.60;70.76
22572;BME280;11452;53.368;14.658;2022-08-19T17:39:35;100460.98;;;25.56;71.36
22572;BME280;11452;53.368;14.658;2022-08-19T17:44:43;100464.95;;;25.53;71.89
22572;BME280;11452;53.368;14.658;2022-08-19T17:49:50;100464.37;;;25.43;71.52
22572;BME280;11452;53.368;14.658;2022-08-19T17:54:56;100474.52;;;25.24;71.90
22572;BME280;11452;53.368;14.658;2022-08-19T18:00:03;100466.08;;;25.15;72.61
22572;BME280;11452;53.368;14.658;2022-08-19T18:05:11;100464.45;;;25.06;72.82
22572;BME280;11452;53.368;14.658;2022-08-19T18:10:19;100480.02;;;25.05;73.33
22572;BME280;11452;53.368;14.658;2022-08-19T18:15:28;100475.46;;;25.02;73.54
22572;BME280;11452;53.368;14.658;2022-08-19T18:20:34;100482.30;;;25.02;73.98
22572;BME280;11452;53.368;14.658;2022-08-19T18:25:40;100483.91;;;24.88;73.82
22572;BME280;11452;53.368;14.658;2022-08-19T18:30:47;100494.85;;;24.88;74.47
22572;BME280;11452;53.368;14.658;2022-08-19T18:35:52;100503.66;;;24.79;74.40
22572;BME280;11452;53.368;14.658;2022-08-19T18:40:58;100512.72;;;24.80;75.02
22572;BME280;11452;53.368;14.658;2022-08-19T18:46:22;100511.74;;;24.73;74.91
22572;BME280;11452;53.368;14.658;2022-08-19T18:51:45;100534.03;;;24.66;75.35
22572;BME280;11452;53.368;14.658;2022-08-19T18:56:51;100548.06;;;24.63;75.42
22572;BME280;11452;53.368;14.658;2022-08-19T19:01:59;100564.48;;;24.59;75.64
22572;BME280;11452;53.368;14.658;2022-08-19T19:07:06;100570.13;;;24.57;74.95
22572;BME280;11452;53.368;14.658;2022-08-19T19:12:13;100568.58;;;24.59;75.42
22572;BME280;11452;53.368;14.658;2022-08-19T19:17:21;100581.91;;;24.58;75.25
22572;BME280;11452;53.368;14.658;2022-08-19T19:22:28;100582.77;;;24.58;75.42
22572;BME280;11452;53.368;14.658;2022-08-19T19:27:33;100595.20;;;24.65;75.26
22572;BME280;11452;53.368;14.658;2022-08-19T19:32:39;100603.92;;;24.64;75.02
22572;BME280;11452;53.368;14.658;2022-08-19T19:37:47;100597.44;;;24.61;75.44
22572;BME280;11452;53.368;14.658;2022-08-19T19:42:54;100603.60;;;24.59;75.32
22572;BME280;11452;53.368;14.658;2022-08-19T19:47:59;100602.84;;;24.46;75.53
22572;BME280;11452;53.368;14.658;2022-08-19T19:53:05;100603.20;;;24.39;75.55
22572;BME280;11452;53.368;14.658;2022-08-19T19:58:11;100580.57;;;24.27;76.02
22572;BME280;11452;53.368;14.658;2022-08-19T20:03:16;100583.80;;;24.22;76.74
22572;BME280;11452;53.368;14.658;2022-08-19T20:08:25;100586.87;;;24.23;77.09
22572;BME280;11452;53.368;14.658;2022-08-19T20:13:48;100587.91;;;24.26;77.02
22572;BME280;11452;53.368;14.658;2022-08-19T20:18:55;100588.81;;;24.10;77.19
22572;BME280;11452;53.368;14.658;2022-08-19T20:24:03;100604.31;;;24.14;77.33
22572;BME280;11452;53.368;14.658;2022-08-19T20:29:10;100612.38;;;24.11;77.61
22572;BME280;11452;53.368;14.658;2022-08-19T20:34:17;100634.40;;;24.10;77.75
22572;BME280;11452;53.368;14.658;2022-08-19T20:39:24;100629.11;;;24.08;77.65
22572;BME280;11452;53.368;14.658;2022-08-19T20:44:30;100625.02;;;24.04;77.94
22572;BME280;11452;53.368;14.658;2022-08-19T20:49:36;100625.20;;;23.99;78.07
22572;BME280;11452;53.368;14.658;2022-08-19T20:54:41;100626.62;;;23.87;77.90
22572;BME280;11452;53.368;14.658;2022-08-19T20:59:47;100621.20;;;23.74;78.50
22572;BME280;11452;53.368;14.658;2022-08-19T21:04:52;100615.58;;;23.68;78.42
22572;BME280;11452;53.368;14.658;2022-08-19T21:10:00;100607.05;;;23.59;79.32
22572;BME280;11452;53.368;14.658;2022-08-19T21:15:08;100618.81;;;23.59;79.46
22572;BME280;11452;53.368;14.658;2022-08-19T21:20:14;100610.32;;;23.54;79.50
22572;BME280;11452;53.368;14.658;2022-08-19T21:25:20;100599.75;;;23.55;80.00
22572;BME280;11452;53.368;14.658;2022-08-19T21:30:26;100614.75;;;23.55;79.97
22572;BME280;11452;53.368;14.658;2022-08-19T21:35:32;100626.49;;;23.47;80.10
22572;BME280;11452;53.368;14.658;2022-08-19T21:40:39;100614.55;;;23.44;80.46
22572;BME280;11452;53.368;14.658;2022-08-19T21:45:45;100617.96;;;23.42;80.87
22572;BME280;11452;53.368;14.658;2022-08-19T21:50:51;100607.25;;;23.37;80.62
22572;BME280;11452;53.368;14.658;2022-08-19T21:55:57;100600.59;;;23.31;80.91
22572;BME280;11452;53.368;14.658;2022-08-19T22:01:04;100582.18;;;23.29;80.98
22572;BME280;11452;53.368;14.658;2022-08-19T22:06:11;100583.37;;;23.23;81.36
22572;BME280;11452;53.368;14.658;2022-08-19T22:11:17;100574.70;;;23.15;81.72
22572;BME280;11452;53.368;14.658;2022-08-19T22:16:23;100563.96;;;23.13;81.87
22572;BME280;11452;53.368;14.658;2022-08-19T22:21:30;100576.23;;;23.09;82.09
22572;BME280;11452;53.368;14.658;2022-08-19T22:26:37;100578.61;;;23.08;82.35
22572;BME280;11452;53.368;14.658;2022-08-19T22:31:43;100583.03;;;23.01;82.32
22572;BME280;11452;53.368;14.658;2022-08-19T22:36:51;100595.81;;;23.01;82.55
22572;BME280;11452;53.368;14.658;2022-08-19T22:41:56;100593.11;;;22.97;82.88
22572;BME280;11452;53.368;14.658;2022-08-19T22:47:02;100591.92;;;22.99;83.30
22572;BME280;11452;53.368;14.658;2022-08-19T22:52:07;100580.33;;;22.97;83.18
22572;BME280;11452;53.368;14.658;2022-08-19T22:57:21;100570.45;;;22.96;83.19
22572;BME280;11452;53.368;14.658;2022-08-19T23:02:30;100584.59;;;22.96;83.15
22572;BME280;11452;53.368;14.658;2022-08-19T23:07:38;100594.30;;;22.94;83.46
22572;BME280;11452;53.368;14.658;2022-08-19T23:12:46;100588.50;;;22.93;83.60
22572;BME280;11452;53.368;14.658;2022-08-19T23:17:54;100571.98;;;22.95;83.86
22572;BME280;11452;53.368;14.658;2022-08-19T23:23:04;100587.32;;;23.00;83.86
22572;BME280;11452;53.368;14.658;2022-08-19T23:28:09;100622.06;;;23.02;83.77
22572;BME280;11452;53.368;14.658;2022-08-19T23:33:36;100600.10;;;22.99;83.71
22572;BME280;11452;53.368;14.658;2022-08-19T23:38:45;100600.09;;;22.95;83.85
22572;BME280;11452;53.368;14.658;2022-08-19T23:43:52;100585.26;;;22.90;83.73
22572;BME280;11452;53.368;14.658;2022-08-19T23:48:58;100583.56;;;22.81;83.44
22572;BME280;11452;53.368;14.658;2022-08-19T23:54:04;100587.48;;;22.78;84.18
22572;BME280;11452;53.368;14.658;2022-08-19T23:59:12;100615.23;;;22.77;84.18
